createdAt,value
2018-12-27T00:00:01.457Z,1021.45
2018-12-27T00:15:01.482Z,1021.33
2018-12-27T00:30:01.485Z,1021.17
2018-12-27T00:45:01.527Z,1020.98
2018-12-27T01:00:01.488Z,1020.82
2018-12-27T01:11:01.503Z,1020.79
2018-12-27T01:26:02.400Z,1020.83
2018-12-27T01:41:02.223Z,1020.74
2018-12-27T01:56:02.320Z,1020.73
2018-12-27T02:11:01.450Z,1020.74
2018-12-27T02:26:01.488Z,1020.7
2018-12-27T02:41:01.521Z,1020.48
2018-12-27T02:56:01.553Z,1020.39
2018-12-27T03:11:01.557Z,1020.17
2018-12-27T03:26:01.480Z,1019.98
2018-12-27T03:41:01.596Z,1019.87
2018-12-27T03:56:01.717Z,1019.74
2018-12-27T04:01:01.409Z,1019.73
2018-12-27T04:16:01.476Z,1019.71
2018-12-27T04:31:01.460Z,1019.39
2018-12-27T04:46:01.541Z,1019.34
2018-12-27T05:01:01.469Z,1019.24
2018-12-27T05:16:01.488Z,1019.25
2018-12-27T05:31:01.520Z,1019.45
2018-12-27T05:46:01.526Z,1019.47
2018-12-27T06:02:01.540Z,1019.51
2018-12-27T06:17:01.591Z,1019.5
2018-12-27T06:27:01.586Z,1019.41
2018-12-27T06:42:01.389Z,1019.44
2018-12-27T06:47:01.257Z,1019.43
2018-12-27T07:02:01.535Z,1019.28
2018-12-27T07:17:01.583Z,1019.17
2018-12-27T07:27:01.532Z,1019.03
2018-12-27T07:42:01.525Z,1019.05
2018-12-27T07:57:01.540Z,1019.15
2018-12-27T08:12:01.532Z,1019.11
2018-12-27T08:27:01.607Z,1019.12
2018-12-27T08:42:01.532Z,1019.23
2018-12-27T08:57:01.534Z,1019.28
2018-12-27T09:12:01.589Z,1019.27
2018-12-27T09:27:01.532Z,1019.39
2018-12-27T09:42:01.536Z,1019.38
2018-12-27T09:52:02.640Z,1019.36
2018-12-27T10:08:01.537Z,1019.39
2018-12-27T10:23:01.529Z,1019.31
2018-12-27T10:38:01.547Z,1019.26
2018-12-27T10:54:01.498Z,1019.15
2018-12-27T11:09:01.598Z,1019.11
2018-12-27T11:24:01.535Z,1019.01
2018-12-27T11:39:01.551Z,1018.86
2018-12-27T11:54:01.539Z,1018.69
2018-12-27T12:09:01.409Z,1018.66
2018-12-27T12:24:01.423Z,1018.67
2018-12-27T12:39:01.399Z,1018.63
2018-12-27T12:54:01.496Z,1018.66
2018-12-27T12:59:01.430Z,1018.65
2018-12-27T13:14:01.431Z,1018.62
2018-12-27T13:29:01.426Z,1018.7
2018-12-27T13:44:06.432Z,1018.67
2018-12-27T13:59:01.420Z,1018.82
2018-12-27T14:14:01.425Z,1018.77
2018-12-27T14:29:01.418Z,1018.8
2018-12-27T14:44:01.404Z,1018.79
2018-12-27T14:55:01.381Z,1018.89
2018-12-27T15:00:01.419Z,1018.99
2018-12-27T15:15:01.411Z,1018.99
2018-12-27T15:20:01.395Z,1019.1
2018-12-27T15:30:01.402Z,1019.04
2018-12-27T15:45:01.370Z,1019.05
2018-12-27T16:00:01.402Z,1019.04
2018-12-27T16:05:01.395Z,1019.04
2018-12-27T16:15:01.409Z,1019.13
2018-12-27T16:30:01.270Z,1018.99
2018-12-27T16:45:01.659Z,1018.97
2018-12-27T17:00:01.656Z,1018.85
2018-12-27T17:15:01.531Z,1018.99
2018-12-27T17:31:01.542Z,1018.81
2018-12-27T17:46:01.529Z,1018.83
2018-12-27T18:01:01.452Z,1019.02
2018-12-27T18:16:01.510Z,1019.03
2018-12-27T18:31:01.562Z,1019.12
2018-12-27T18:46:01.461Z,1019.07
2018-12-27T19:01:01.785Z,1019.03
2018-12-27T19:16:01.442Z,1019.01
2018-12-27T19:31:01.581Z,1019.11
2018-12-27T19:46:01.525Z,1019.08
2018-12-27T20:02:01.509Z,1019.11
2018-12-27T20:17:01.504Z,1019.05
2018-12-27T20:32:01.554Z,1019.19
2018-12-27T20:47:02.564Z,1019.34
2018-12-27T21:02:01.521Z,1019.35
2018-12-27T21:17:01.444Z,1019.37
2018-12-27T21:32:01.568Z,1019.38
2018-12-27T21:47:02.075Z,1019.1
2018-12-27T21:52:01.518Z,1019.11
2018-12-27T22:07:01.516Z,1018.97
2018-12-27T22:17:01.503Z,1018.95
2018-12-27T22:32:01.478Z,1018.89
2018-12-27T22:47:01.521Z,1018.87
2018-12-27T23:02:01.484Z,1019.09
2018-12-27T23:17:01.478Z,1019.1
2018-12-27T23:22:01.507Z,1019.09
2018-12-27T23:37:01.528Z,1019.03
2018-12-27T23:42:01.460Z,1018.96
2018-12-27T23:57:01.463Z,1018.98
